createdAt,value
2024-05-09T00:00:38.737Z,11.38
2024-05-09T00:01:20.024Z,11.38
2024-05-09T00:02:22.067Z,11.38
2024-05-09T00:03:20.534Z,11.38
2024-05-09T00:04:22.663Z,11.38
2024-05-09T00:05:22.114Z,11.38
2024-05-09T00:06:18.232Z,11.38
2024-05-09T00:07:20.110Z,11.38
2024-05-09T00:08:19.430Z,11.31
2024-05-09T00:09:22.555Z,11.31
2024-05-09T00:10:37.334Z,11.38
2024-05-09T00:11:18.048Z,11.31
2024-05-09T00:12:17.196Z,11.31
2024-05-09T00:13:17.388Z,11.31
2024-05-09T00:14:17.304Z,11.31
2024-05-09T00:15:18.090Z,11.31
2024-05-09T00:16:18.184Z,11.31
2024-05-09T00:17:19.053Z,11.31
2024-05-09T00:18:17.290Z,11.31
2024-05-09T00:19:17.253Z,11.31
2024-05-09T00:20:36.249Z,11.31
2024-05-09T00:21:18.071Z,11.31
2024-05-09T00:22:16.958Z,11.31
2024-05-09T00:23:17.838Z,11.31
2024-05-09T00:24:17.319Z,11.31
2024-05-09T00:25:17.946Z,11.31
2024-05-09T00:26:17.456Z,11.31
2024-05-09T00:27:18.256Z,11.31
2024-05-09T00:28:17.526Z,11.31
2024-05-09T00:29:18.023Z,11.31
2024-05-09T00:30:35.359Z,11.31
2024-05-09T00:31:17.450Z,11.31
2024-05-09T00:32:18.339Z,11.31
2024-05-09T00:33:18.681Z,11.31
2024-05-09T00:34:18.401Z,11.31
2024-05-09T00:35:18.074Z,11.31
2024-05-09T00:36:17.375Z,11.31
2024-05-09T00:37:17.586Z,11.31
2024-05-09T00:38:18.028Z,11.31
2024-05-09T00:39:17.053Z,11.31
2024-05-09T00:40:38.683Z,11.31
2024-05-09T00:41:20.202Z,11.31
2024-05-09T00:42:18.047Z,11.31
2024-05-09T00:43:18.008Z,11.31
2024-05-09T00:44:18.738Z,11.25
2024-05-09T00:45:18.635Z,11.25
2024-05-09T00:46:16.662Z,11.25
2024-05-09T00:47:17.318Z,11.25
2024-05-09T00:48:21.950Z,11.25
2024-05-09T00:49:17.411Z,11.25
2024-05-09T00:50:36.064Z,11.25
2024-05-09T00:51:16.845Z,11.25
2024-05-09T00:52:16.648Z,11.25
2024-05-09T00:53:19.070Z,11.19
2024-05-09T00:54:17.895Z,11.19
2024-05-09T00:55:17.282Z,11.19
2024-05-09T00:56:17.405Z,11.19
2024-05-09T00:57:18.360Z,11.19
2024-05-09T00:58:18.255Z,11.19
2024-05-09T00:59:17.656Z,11.19
2024-05-09T01:00:38.638Z,11.19
2024-05-09T01:01:17.324Z,11.12
2024-05-09T01:02:19.077Z,11.12
2024-05-09T01:03:18.863Z,11.12
2024-05-09T01:04:17.210Z,11.12
2024-05-09T01:05:17.868Z,11.12
2024-05-09T01:06:18.854Z,11.12
2024-05-09T01:07:16.832Z,11.12
2024-05-09T01:08:17.159Z,11.12
2024-05-09T01:09:17.155Z,11.12
2024-05-09T01:10:34.722Z,11.19
2024-05-09T01:11:17.183Z,11.12
2024-05-09T01:12:18.754Z,11.12
2024-05-09T01:13:17.502Z,11.12
2024-05-09T01:14:18.684Z,11.12
2024-05-09T01:15:17.039Z,11.12
2024-05-09T01:16:17.450Z,11.12
2024-05-09T01:17:19.100Z,11.12
2024-05-09T01:18:17.944Z,11.12
2024-05-09T01:19:17.885Z,11.19
2024-05-09T01:20:40.159Z,11.19
2024-05-09T01:21:17.643Z,11.19
2024-05-09T01:22:18.376Z,11.12
2024-05-09T01:23:19.107Z,11.12
2024-05-09T01:24:18.843Z,11.19
2024-05-09T01:25:17.555Z,11.19
2024-05-09T01:26:16.764Z,11.12
2024-05-09T01:27:16.762Z,11.12
2024-05-09T01:28:17.036Z,11.12
2024-05-09T01:29:17.126Z,11.12
2024-05-09T01:30:34.320Z,11.12
2024-05-09T01:31:17.663Z,11.12
2024-05-09T01:32:17.884Z,11.12
2024-05-09T01:33:17.196Z,11.06
2024-05-09T01:34:18.195Z,11.06
2024-05-09T01:35:17.527Z,11.06
2024-05-09T01:36:17.429Z,11
2024-05-09T01:37:17.567Z,11.06
2024-05-09T01:38:18.165Z,11
2024-05-09T01:39:16.722Z,11
2024-05-09T01:40:35.537Z,11
2024-05-09T01:41:17.788Z,11
2024-05-09T01:42:16.972Z,11
2024-05-09T01:43:17.086Z,11
2024-05-09T01:44:17.148Z,11
2024-05-09T01:45:17.760Z,10.94
2024-05-09T01:46:17.859Z,11
2024-05-09T01:47:17.517Z,11
2024-05-09T01:48:17.507Z,10.94
2024-05-09T01:49:17.594Z,10.94
2024-05-09T01:50:37.715Z,10.94
2024-05-09T01:51:18.002Z,10.94
2024-05-09T01:52:16.857Z,10.94
2024-05-09T01:53:17.189Z,10.94
2024-05-09T01:54:18.440Z,10.94
2024-05-09T01:55:17.901Z,11
2024-05-09T01:56:17.329Z,11
2024-05-09T01:57:17.186Z,11
2024-05-09T01:58:17.306Z,10.94
2024-05-09T01:59:18.708Z,11
2024-05-09T02:00:39.841Z,11
2024-05-09T02:01:17.637Z,11
2024-05-09T02:02:19.436Z,11
2024-05-09T02:03:18.764Z,11
2024-05-09T02:04:17.401Z,11
2024-05-09T02:05:18.045Z,10.94
2024-05-09T02:06:16.666Z,10.94
2024-05-09T02:07:17.830Z,10.94
2024-05-09T02:08:18.350Z,10.94
2024-05-09T02:09:17.075Z,10.94
2024-05-09T02:10:32.939Z,10.94
2024-05-09T02:11:18.788Z,10.94
2024-05-09T02:12:18.002Z,10.94
2024-05-09T02:13:17.675Z,10.94
2024-05-09T02:14:15.717Z,10.94
2024-05-09T02:15:17.686Z,11
2024-05-09T02:16:15.882Z,11
2024-05-09T02:17:18.526Z,11
2024-05-09T02:18:19.450Z,10.94
2024-05-09T02:19:17.518Z,10.94
2024-05-09T02:20:35.985Z,10.94
2024-05-09T02:21:17.118Z,10.94
2024-05-09T02:22:16.990Z,10.94
2024-05-09T02:23:18.151Z,10.94
2024-05-09T02:24:17.142Z,10.94
2024-05-09T02:25:17.918Z,10.94
2024-05-09T02:26:18.111Z,10.94
2024-05-09T02:27:17.052Z,10.94
2024-05-09T02:28:17.151Z,10.94
2024-05-09T02:29:17.262Z,10.94
2024-05-09T02:30:40.200Z,10.94
2024-05-09T02:31:16.920Z,10.94
2024-05-09T02:32:18.357Z,10.94
2024-05-09T02:33:17.871Z,10.94
2024-05-09T02:34:18.794Z,10.94
2024-05-09T02:35:17.258Z,10.94
2024-05-09T02:36:17.350Z,10.94
2024-05-09T02:37:17.401Z,10.94
2024-05-09T02:38:17.789Z,10.94
2024-05-09T02:39:18.579Z,11
2024-05-09T02:40:36.402Z,10.94
2024-05-09T02:41:17.385Z,10.94
2024-05-09T02:42:18.324Z,11
2024-05-09T02:43:17.490Z,11
2024-05-09T02:44:18.731Z,11
2024-05-09T02:45:17.091Z,11
2024-05-09T02:46:17.394Z,11
2024-05-09T02:47:17.841Z,11
2024-05-09T02:48:17.103Z,11
2024-05-09T02:49:17.027Z,11
2024-05-09T02:50:38.940Z,11
2024-05-09T02:51:17.203Z,11
2024-05-09T02:52:17.123Z,11
2024-05-09T02:53:18.201Z,11
2024-05-09T02:54:17.339Z,11
2024-05-09T02:55:17.827Z,11
2024-05-09T02:56:17.071Z,11
2024-05-09T02:57:16.980Z,11
2024-05-09T02:58:18.119Z,11.06
2024-05-09T02:59:17.269Z,11.06
2024-05-09T03:00:35.234Z,11
2024-05-09T03:01:16.756Z,11
2024-05-09T03:02:18.969Z,11.06
2024-05-09T03:03:17.163Z,11.06
2024-05-09T03:04:17.129Z,11
2024-05-09T03:05:17.702Z,11
2024-05-09T03:06:18.594Z,11
2024-05-09T03:07:20.312Z,11
2024-05-09T03:08:16.660Z,11
2024-05-09T03:09:16.907Z,11
2024-05-09T03:10:28.957Z,11
2024-05-09T03:11:16.941Z,11.06
2024-05-09T03:12:18.007Z,11.06
2024-05-09T03:13:17.094Z,11.06
2024-05-09T03:14:18.292Z,11
2024-05-09T03:15:17.837Z,11
2024-05-09T03:16:16.851Z,11.06
2024-05-09T03:17:17.250Z,11.06
2024-05-09T03:18:18.330Z,11.06
2024-05-09T03:19:18.726Z,11.06
2024-05-09T03:20:33.521Z,11.06
2024-05-09T03:21:17.133Z,11.06
2024-05-09T03:22:18.279Z,11.06
2024-05-09T03:23:18.492Z,11.06
2024-05-09T03:24:18.473Z,11.06
2024-05-09T03:25:18.163Z,11.12
2024-05-09T03:26:17.504Z,11.12
2024-05-09T03:27:17.588Z,11.12
2024-05-09T03:28:18.552Z,11.12
2024-05-09T03:29:17.066Z,11.12
2024-05-09T03:30:41.545Z,11.12
2024-05-09T03:31:17.496Z,11.12
2024-05-09T03:32:17.664Z,11.12
2024-05-09T03:33:21.124Z,11.12
2024-05-09T03:34:17.748Z,11.12
2024-05-09T03:35:17.338Z,11.12
2024-05-09T03:36:17.357Z,11.12
2024-05-09T03:37:17.444Z,11.19
2024-05-09T03:38:19.023Z,11.12
2024-05-09T03:39:16.845Z,11.19
2024-05-09T03:40:30.524Z,11.19
2024-05-09T03:41:16.898Z,11.25
2024-05-09T03:42:17.019Z,11.25
2024-05-09T03:43:17.257Z,11.19
2024-05-09T03:44:17.633Z,11.25
2024-05-09T03:45:17.247Z,11.19
2024-05-09T03:46:17.265Z,11.25
2024-05-09T03:47:18.416Z,11.25
2024-05-09T03:48:17.712Z,11.25
2024-05-09T03:49:17.938Z,11.25
2024-05-09T03:50:35.232Z,11.25
2024-05-09T03:51:17.468Z,11.25
2024-05-09T03:52:17.595Z,11.25
2024-05-09T03:53:17.745Z,11.25
2024-05-09T03:54:17.053Z,11.25
2024-05-09T03:55:18.464Z,11.31
2024-05-09T03:56:17.800Z,11.31
2024-05-09T03:57:17.095Z,11.31
2024-05-09T03:58:17.267Z,11.31
2024-05-09T03:59:17.352Z,11.38
2024-05-09T04:00:37.510Z,11.38
2024-05-09T04:01:16.959Z,11.38
2024-05-09T04:02:18.686Z,11.38
2024-05-09T04:03:17.591Z,11.38
2024-05-09T04:04:17.198Z,11.38
2024-05-09T04:05:18.632Z,11.38
2024-05-09T04:06:16.694Z,11.38
2024-05-09T04:07:20.237Z,11.38
2024-05-09T04:08:18.350Z,11.38
2024-05-09T04:09:17.295Z,11.38
2024-05-09T04:10:34.652Z,11.38
2024-05-09T04:11:17.456Z,11.44
2024-05-09T04:12:17.746Z,11.44
2024-05-09T04:13:54.599Z,11.44
2024-05-09T04:14:17.867Z,11.44
2024-05-09T04:15:18.306Z,11.5
2024-05-09T04:16:17.258Z,11.5
2024-05-09T04:17:17.292Z,11.5
2024-05-09T04:18:18.719Z,11.56
2024-05-09T04:19:17.886Z,11.56
2024-05-09T04:20:40.072Z,11.56
2024-05-09T04:21:17.322Z,11.63
2024-05-09T04:22:17.170Z,11.63
2024-05-09T04:23:17.341Z,11.63
2024-05-09T04:24:17.400Z,11.63
2024-05-09T04:25:19.291Z,11.69
2024-05-09T04:26:18.396Z,11.69
2024-05-09T04:27:17.409Z,11.75
2024-05-09T04:28:17.721Z,11.75
2024-05-09T04:29:17.928Z,11.81
2024-05-09T04:30:37.798Z,11.81
2024-05-09T04:31:16.827Z,11.88
2024-05-09T04:32:17.116Z,11.88
2024-05-09T04:33:17.168Z,11.88
2024-05-09T04:34:19.229Z,11.88
2024-05-09T04:35:22.443Z,11.94
2024-05-09T04:36:18.114Z,11.94
2024-05-09T04:37:48.381Z,11.94
2024-05-09T04:38:17.574Z,11.94
2024-05-09T04:39:17.638Z,11.94
2024-05-09T04:40:35.164Z,12
2024-05-09T04:41:18.275Z,12
2024-05-09T04:42:18.197Z,12
2024-05-09T04:43:17.570Z,12.06
2024-05-09T04:44:18.630Z,12.06
2024-05-09T04:45:17.799Z,12.06
2024-05-09T04:46:17.031Z,12.06
2024-05-09T04:47:17.133Z,12.06
2024-05-09T04:48:18.591Z,12.06
2024-05-09T04:49:17.337Z,12.13
2024-05-09T04:50:37.773Z,12.13
2024-05-09T04:51:16.010Z,12.13
2024-05-09T04:52:17.111Z,12.13
2024-05-09T04:53:18.217Z,12.19
2024-05-09T04:54:36.556Z,12.19
2024-05-09T04:55:17.777Z,12.19
2024-05-09T04:56:17.171Z,12.19
2024-05-09T04:57:18.006Z,12.19
2024-05-09T04:58:18.073Z,12.19
2024-05-09T04:59:17.371Z,12.25
2024-05-09T05:00:35.650Z,12.25
2024-05-09T05:01:16.846Z,12.25
2024-05-09T05:02:18.033Z,12.25
2024-05-09T05:03:18.644Z,12.31
2024-05-09T05:04:17.659Z,12.31
2024-05-09T05:05:17.600Z,12.37
2024-05-09T05:06:18.307Z,12.37
2024-05-09T05:07:16.684Z,12.37
2024-05-09T05:08:19.584Z,12.44
2024-05-09T05:09:18.619Z,12.44
2024-05-09T05:10:35.650Z,12.5
2024-05-09T05:11:21.311Z,12.5
2024-05-09T05:12:53.166Z,12.5
2024-05-09T05:13:21.446Z,12.5
2024-05-09T05:14:18.387Z,12.56
2024-05-09T05:15:17.557Z,12.56
2024-05-09T05:16:17.516Z,12.63
2024-05-09T05:17:18.822Z,12.63
2024-05-09T05:18:17.939Z,12.63
2024-05-09T05:19:18.491Z,12.69
2024-05-09T05:20:33.783Z,12.69
2024-05-09T05:21:17.884Z,12.69
2024-05-09T05:22:17.711Z,12.75
2024-05-09T05:23:17.281Z,12.75
2024-05-09T05:24:16.736Z,12.75
2024-05-09T05:25:16.951Z,12.75
2024-05-09T05:26:17.091Z,12.81
2024-05-09T05:27:17.189Z,12.81
2024-05-09T05:28:17.418Z,12.81
2024-05-09T05:29:21.355Z,12.81
2024-05-09T05:30:34.295Z,12.81
2024-05-09T05:31:17.438Z,12.81
2024-05-09T05:32:17.962Z,12.81
2024-05-09T05:33:17.293Z,12.81
2024-05-09T05:34:16.845Z,12.81
2024-05-09T05:35:17.320Z,12.88
2024-05-09T05:36:17.524Z,12.88
2024-05-09T05:37:17.624Z,12.94
2024-05-09T05:38:17.816Z,12.94
2024-05-09T05:39:16.740Z,12.94
2024-05-09T05:40:36.956Z,13
2024-05-09T05:41:17.134Z,13
2024-05-09T05:42:17.175Z,13.06
2024-05-09T05:43:17.367Z,13.06
2024-05-09T05:44:55.305Z,13.13
2024-05-09T05:45:18.599Z,13.13
2024-05-09T05:46:17.759Z,13.19
2024-05-09T05:47:16.973Z,13.19
2024-05-09T05:48:19.174Z,13.25
2024-05-09T05:49:17.317Z,13.31
2024-05-09T05:50:36.197Z,13.31
2024-05-09T05:51:17.596Z,13.38
2024-05-09T05:52:18.018Z,13.38
2024-05-09T05:53:17.501Z,13.44
2024-05-09T05:54:17.333Z,13.44
2024-05-09T05:55:22.588Z,13.5
2024-05-09T05:56:49.732Z,13.56
2024-05-09T05:57:38.825Z,13.62
2024-05-09T05:58:29.817Z,13.69
2024-05-09T05:59:46.823Z,13.69
2024-05-09T06:00:49.861Z,13.81
2024-05-09T06:01:45.223Z,13.88
2024-05-09T06:02:17.679Z,13.94
2024-05-09T06:03:20.890Z,14
2024-05-09T06:04:16.758Z,14.06
2024-05-09T06:05:47.967Z,14.19
2024-05-09T06:06:26.980Z,14.25
2024-05-09T06:07:21.273Z,14.31
2024-05-09T06:08:17.469Z,14.38
2024-05-09T06:09:17.366Z,14.44
2024-05-09T06:10:34.981Z,14.5
2024-05-09T06:11:16.927Z,14.56
2024-05-09T06:12:17.835Z,14.69
2024-05-09T06:13:16.667Z,14.75
2024-05-09T06:14:17.128Z,14.87
2024-05-09T06:15:17.228Z,14.94
2024-05-09T06:16:17.052Z,14.94
2024-05-09T06:17:17.378Z,15.06
2024-05-09T06:18:17.538Z,15.06
2024-05-09T06:19:17.375Z,15.13
2024-05-09T06:20:36.345Z,15.13
2024-05-09T06:21:18.154Z,15.25
2024-05-09T06:22:17.477Z,15.31
2024-05-09T06:23:16.768Z,15.44
2024-05-09T06:24:17.865Z,15.5
2024-05-09T06:25:16.919Z,15.63
2024-05-09T06:26:17.118Z,15.69
2024-05-09T06:27:17.025Z,15.81
2024-05-09T06:28:18.173Z,16
2024-05-09T06:29:17.359Z,16.12
2024-05-09T06:30:38.319Z,16.19
2024-05-09T06:31:16.597Z,16.25
2024-05-09T06:32:16.940Z,16.37
2024-05-09T06:33:17.905Z,16.44
2024-05-09T06:34:17.178Z,16.56
2024-05-09T06:35:16.817Z,16.75
2024-05-09T06:36:17.858Z,16.81
2024-05-09T06:37:16.912Z,17
2024-05-09T06:38:17.009Z,17.12
2024-05-09T06:39:16.970Z,17.06
2024-05-09T06:40:34.424Z,17.06
2024-05-09T06:41:16.618Z,17.19
2024-05-09T06:42:16.761Z,17.19
2024-05-09T06:43:20.226Z,17.19
2024-05-09T06:44:18.177Z,17.12
2024-05-09T06:45:17.103Z,17.12
2024-05-09T06:46:17.105Z,17.12
2024-05-09T06:47:17.392Z,17.19
2024-05-09T06:48:17.542Z,17.06
2024-05-09T06:49:17.578Z,17.12
2024-05-09T06:50:31.326Z,17.19
2024-05-09T06:51:18.472Z,17.25
2024-05-09T06:52:18.406Z,17.25
2024-05-09T06:53:18.033Z,17.31
2024-05-09T06:54:17.653Z,17.19
2024-05-09T06:55:17.772Z,17.25
2024-05-09T06:56:17.003Z,17.31
2024-05-09T06:57:17.765Z,17.37
2024-05-09T06:58:17.899Z,17.5
2024-05-09T06:59:17.041Z,17.5
2024-05-09T07:00:38.522Z,17.5
2024-05-09T07:01:17.507Z,17.56
2024-05-09T07:02:17.753Z,17.5
2024-05-09T07:03:20.267Z,17.5
2024-05-09T07:04:17.992Z,17.56
2024-05-09T07:05:17.999Z,17.5
2024-05-09T07:06:16.907Z,17.56
2024-05-09T07:07:16.860Z,17.56
2024-05-09T07:08:17.506Z,17.56
2024-05-09T07:09:17.335Z,17.69
2024-05-09T07:10:34.464Z,17.69
2024-05-09T07:11:16.940Z,17.69
2024-05-09T07:12:17.162Z,17.69
2024-05-09T07:13:18.066Z,17.75
2024-05-09T07:14:17.134Z,17.75
2024-05-09T07:15:17.408Z,17.81
2024-05-09T07:16:18.605Z,17.62
2024-05-09T07:17:17.763Z,17.62
2024-05-09T07:18:20.236Z,17.56
2024-05-09T07:19:18.238Z,17.5
2024-05-09T07:20:34.897Z,17.5
2024-05-09T07:21:17.305Z,17.56
2024-05-09T07:22:17.082Z,17.62
2024-05-09T07:23:17.293Z,17.56
2024-05-09T07:24:18.100Z,17.5
2024-05-09T07:25:17.358Z,17.5
2024-05-09T07:26:17.790Z,17.5
2024-05-09T07:27:17.428Z,17.62
2024-05-09T07:28:18.489Z,17.75
2024-05-09T07:29:18.542Z,17.81
2024-05-09T07:30:34.283Z,17.87
2024-05-09T07:31:18.621Z,17.87
2024-05-09T07:32:17.223Z,17.94
2024-05-09T07:33:17.726Z,18
2024-05-09T07:34:18.377Z,18
2024-05-09T07:35:18.685Z,18
2024-05-09T07:36:18.600Z,18.12
2024-05-09T07:37:16.570Z,18.25
2024-05-09T07:38:17.906Z,18.31
2024-05-09T07:39:16.799Z,18.31
2024-05-09T07:40:36.550Z,18.62
2024-05-09T07:41:17.270Z,18.87
2024-05-09T07:42:16.935Z,19.06
2024-05-09T07:43:17.192Z,19.37
2024-05-09T07:44:17.388Z,19.56
2024-05-09T07:45:40.400Z,19.81
2024-05-09T07:50:01.022Z,20.5
2024-05-09T07:51:48.286Z,20.62
2024-05-09T07:53:44.723Z,21.12
2024-05-09T07:53:47.246Z,21.12
2024-05-09T07:54:17.793Z,21.19
2024-05-09T07:55:18.008Z,21.25
2024-05-09T07:56:21.834Z,21.31
2024-05-09T07:57:17.996Z,21.44
2024-05-09T07:58:18.622Z,21.44
2024-05-09T07:59:17.679Z,21.37
2024-05-09T08:00:31.826Z,21.44
2024-05-09T08:01:16.924Z,21.37
2024-05-09T08:02:17.840Z,21.37
2024-05-09T08:03:17.924Z,21.44
2024-05-09T08:04:18.352Z,21.31
2024-05-09T08:05:17.840Z,21.19
2024-05-09T08:06:17.690Z,21.25
2024-05-09T08:07:17.811Z,21.25
2024-05-09T08:08:20.756Z,21.37
2024-05-09T08:09:21.855Z,21.44
2024-05-09T08:10:24.443Z,21.56
2024-05-09T08:11:17.822Z,21.5
2024-05-09T08:12:18.743Z,21.81
2024-05-09T08:13:16.988Z,21.94
2024-05-09T08:14:16.922Z,22
2024-05-09T08:15:17.235Z,22.13
2024-05-09T08:16:17.420Z,21.87
2024-05-09T08:17:17.495Z,22.06
2024-05-09T08:18:17.940Z,22
2024-05-09T08:19:17.750Z,22.25
2024-05-09T08:20:35.156Z,22.25
2024-05-09T08:21:16.910Z,22.44
2024-05-09T08:22:18.022Z,22.56
2024-05-09T08:23:18.152Z,22.81
2024-05-09T08:24:16.969Z,22.75
2024-05-09T08:25:18.670Z,22.81
2024-05-09T08:26:17.493Z,22.81
2024-05-09T08:27:17.708Z,22.94
2024-05-09T08:28:18.154Z,23.19
2024-05-09T08:29:16.563Z,23.25
2024-05-09T08:30:36.297Z,23.19
2024-05-09T08:31:17.653Z,22.87
2024-05-09T08:32:17.820Z,22.87
2024-05-09T08:33:18.374Z,22.87
2024-05-09T08:34:17.547Z,22.87
2024-05-09T08:35:17.297Z,22.94
2024-05-09T08:36:18.456Z,22.94
2024-05-09T08:37:29.427Z,22.75
2024-05-09T08:38:17.813Z,22.81
2024-05-09T08:39:17.951Z,22.81
2024-05-09T08:40:35.255Z,22.69
2024-05-09T08:41:17.988Z,22.62
2024-05-09T08:42:16.962Z,22.56
2024-05-09T08:43:17.444Z,22.75
2024-05-09T08:44:19.248Z,23
2024-05-09T08:45:17.519Z,23.31
2024-05-09T08:46:16.870Z,23.31
2024-05-09T08:47:16.760Z,23.31
2024-05-09T08:48:18.303Z,23.38
2024-05-09T08:49:18.108Z,23.69
2024-05-09T08:50:39.208Z,23.81
2024-05-09T08:51:17.179Z,23.75
2024-05-09T08:52:20.198Z,24
2024-05-09T08:53:17.218Z,24.19
2024-05-09T08:54:17.341Z,24.37
2024-05-09T08:55:17.501Z,24.5
2024-05-09T08:56:20.496Z,24.37
2024-05-09T08:57:19.562Z,24.31
2024-05-09T08:58:18.152Z,24.31
2024-05-09T08:59:21.706Z,24.56
2024-05-09T09:00:37.280Z,24.69
2024-05-09T09:01:18.246Z,24.94
2024-05-09T09:02:18.066Z,24.81
2024-05-09T09:03:18.107Z,25.12
2024-05-09T09:04:19.227Z,25.19
2024-05-09T09:05:17.852Z,25.31
2024-05-09T09:06:17.119Z,25.56
2024-05-09T09:07:19.207Z,25.44
2024-05-09T09:08:23.081Z,25.19
2024-05-09T09:09:17.078Z,25.44
2024-05-09T09:10:33.195Z,25.44
2024-05-09T09:11:19.493Z,25.69
2024-05-09T09:12:19.372Z,25.81
2024-05-09T09:13:19.604Z,26.06
2024-05-09T09:14:19.433Z,25.56
2024-05-09T09:15:18.539Z,25.25
2024-05-09T09:16:19.370Z,25.25
2024-05-09T09:17:18.965Z,25.25
2024-05-09T09:18:19.874Z,25.12
2024-05-09T09:19:19.341Z,24.94
2024-05-09T09:20:36.626Z,24.81
2024-05-09T09:21:19.527Z,24.94
2024-05-09T09:22:18.581Z,25.19
2024-05-09T09:23:18.513Z,25.37
2024-05-09T09:24:19.611Z,25.5
2024-05-09T09:25:19.851Z,25.31
2024-05-09T09:26:18.838Z,25.31
2024-05-09T09:27:17.823Z,25.19
2024-05-09T09:28:19.013Z,25.25
2024-05-09T09:29:17.904Z,25.19
2024-05-09T09:30:38.156Z,25.25
2024-05-09T09:31:18.548Z,25.56
2024-05-09T09:32:19.638Z,25.31
2024-05-09T09:33:20.205Z,25.5
2024-05-09T09:34:19.095Z,25.81
2024-05-09T09:35:17.794Z,25.62
2024-05-09T09:36:17.714Z,25.5
2024-05-09T09:37:17.990Z,25.5
2024-05-09T09:38:18.963Z,25.56
2024-05-09T09:39:19.030Z,25.44
2024-05-09T09:40:31.925Z,25.75
2024-05-09T09:41:46.661Z,26.06
2024-05-09T09:42:18.774Z,25.88
2024-05-09T09:43:45.644Z,26.19
2024-05-09T09:44:18.768Z,26.37
2024-05-09T09:45:17.958Z,26.06
2024-05-09T09:46:19.019Z,26
2024-05-09T09:47:19.206Z,26.19
2024-05-09T09:48:18.145Z,26.5
2024-05-09T09:49:19.199Z,26.87
2024-05-09T09:50:34.780Z,27.06
2024-05-09T09:51:19.495Z,27.31
2024-05-09T09:52:19.845Z,27.19
2024-05-09T09:53:18.484Z,27.25
2024-05-09T09:54:19.352Z,27.19
2024-05-09T09:55:19.794Z,27.31
2024-05-09T09:56:18.870Z,27
2024-05-09T09:57:18.871Z,27.31
2024-05-09T09:58:18.346Z,27.31
2024-05-09T09:59:18.836Z,27.06
2024-05-09T10:00:33.299Z,27.19
2024-05-09T10:01:18.155Z,27.25
2024-05-09T10:02:19.595Z,27.25
2024-05-09T10:03:19.649Z,27.13
2024-05-09T10:04:19.716Z,27.44
2024-05-09T10:05:21.022Z,27.31
2024-05-09T10:06:19.614Z,27.62
2024-05-09T10:07:18.508Z,27.87
2024-05-09T10:08:19.751Z,28.06
2024-05-09T10:09:18.882Z,28
2024-05-09T10:10:33.201Z,28
2024-05-09T10:11:18.360Z,28
2024-05-09T10:12:19.474Z,27.81
2024-05-09T10:13:19.590Z,28
2024-05-09T10:14:19.787Z,28
2024-05-09T10:15:18.890Z,28.31
2024-05-09T10:16:19.774Z,28
2024-05-09T10:17:19.716Z,28.56
2024-05-09T10:18:23.096Z,28.5
2024-05-09T10:19:19.148Z,29
2024-05-09T10:20:32.374Z,28.81
2024-05-09T10:21:22.232Z,28.94
2024-05-09T10:22:19.249Z,28.81
2024-05-09T10:23:19.189Z,28.69
2024-05-09T10:24:20.305Z,29.12
2024-05-09T10:25:23.235Z,29.44
2024-05-09T10:26:19.804Z,29.19
2024-05-09T10:27:22.941Z,29
2024-05-09T10:28:25.389Z,29.06
2024-05-09T10:29:21.352Z,28.75
2024-05-09T10:30:29.426Z,28.69
2024-05-09T10:31:19.857Z,28.81
2024-05-09T10:32:23.105Z,29.06
2024-05-09T10:33:21.224Z,28.81
2024-05-09T10:34:19.310Z,28.94
2024-05-09T10:35:19.054Z,29.19
2024-05-09T10:36:18.234Z,29.31
2024-05-09T10:37:22.420Z,29.63
2024-05-09T10:38:19.137Z,29.56
2024-05-09T10:39:23.407Z,29.75
2024-05-09T10:40:32.245Z,29.75
2024-05-09T10:41:19.591Z,30.25
2024-05-09T10:42:22.812Z,30.5
2024-05-09T10:43:18.141Z,30.69
2024-05-09T10:44:23.419Z,30.69
2024-05-09T10:45:19.689Z,30.69
2024-05-09T10:46:20.760Z,30.75
2024-05-09T10:47:18.696Z,30.81
2024-05-09T10:48:17.899Z,30.88
2024-05-09T10:49:19.213Z,31.12
2024-05-09T10:50:34.040Z,30.69
2024-05-09T10:51:19.571Z,30.31
2024-05-09T10:52:20.205Z,30.5
2024-05-09T10:53:20.878Z,30.94
2024-05-09T10:54:17.969Z,30.62
2024-05-09T10:55:18.557Z,30.56
2024-05-09T10:56:19.611Z,30.81
2024-05-09T10:57:19.066Z,30.94
2024-05-09T10:58:18.327Z,31.12
2024-05-09T10:59:19.231Z,31.56
2024-05-09T11:00:36.214Z,31.69
2024-05-09T11:01:20.242Z,31.31
2024-05-09T11:02:19.255Z,31.87
2024-05-09T11:03:19.159Z,31.75
2024-05-09T11:04:20.236Z,31.75
2024-05-09T11:05:20.043Z,31.94
2024-05-09T11:06:19.464Z,32.13
2024-05-09T11:07:20.014Z,32
2024-05-09T11:08:18.626Z,32.25
2024-05-09T11:09:17.832Z,32.31
2024-05-09T11:10:27.665Z,32.56
2024-05-09T11:11:18.463Z,32.19
2024-05-09T11:12:23.612Z,31.94
2024-05-09T11:13:18.782Z,31.69
2024-05-09T11:14:17.777Z,32
2024-05-09T11:15:19.274Z,32.19
2024-05-09T11:16:19.731Z,32.44
2024-05-09T11:17:18.033Z,32.44
2024-05-09T11:18:24.210Z,32.5
2024-05-09T11:19:18.865Z,32.38
2024-05-09T11:20:32.897Z,32.5
2024-05-09T11:21:18.303Z,32.19
2024-05-09T11:22:19.650Z,32.06
2024-05-09T11:23:19.394Z,32.56
2024-05-09T11:24:18.536Z,32.56
2024-05-09T11:25:18.097Z,32.19
2024-05-09T11:26:19.234Z,32.75
2024-05-09T11:27:19.487Z,33.19
2024-05-09T11:28:18.039Z,33.13
2024-05-09T11:29:20.289Z,33.25
2024-05-09T11:30:32.297Z,33.44
2024-05-09T11:31:19.988Z,33.5
2024-05-09T11:32:18.557Z,33.5
2024-05-09T11:33:19.922Z,33.56
2024-05-09T11:34:19.684Z,33.38
2024-05-09T11:35:19.806Z,33.13
2024-05-09T11:36:19.320Z,32.81
2024-05-09T11:37:18.513Z,32.88
2024-05-09T11:38:19.380Z,32.69
2024-05-09T11:39:19.604Z,32.31
2024-05-09T11:40:34.182Z,32.44
2024-05-09T11:41:19.546Z,32.13
2024-05-09T11:42:18.122Z,32.44
2024-05-09T11:43:19.718Z,31.94
2024-05-09T11:44:18.639Z,31.56
2024-05-09T11:45:19.060Z,31.06
2024-05-09T11:46:19.509Z,31.19
2024-05-09T11:47:19.410Z,31.19
2024-05-09T11:48:21.693Z,31.56
2024-05-09T11:49:18.912Z,31.5
2024-05-09T11:50:35.275Z,32.06
2024-05-09T11:51:19.173Z,31.06
2024-05-09T11:52:19.378Z,31.19
2024-05-09T11:53:18.567Z,31.31
2024-05-09T11:54:18.848Z,31.44
2024-05-09T11:55:28.960Z,31.5
2024-05-09T11:56:18.184Z,32.13
2024-05-09T11:57:19.863Z,32.69
2024-05-09T11:58:19.758Z,32.75
2024-05-09T11:59:19.412Z,32.56
2024-05-09T12:00:37.430Z,32.63
2024-05-09T12:01:19.458Z,32.75
2024-05-09T12:02:19.826Z,32.44
2024-05-09T12:03:19.920Z,32.25
2024-05-09T12:04:18.806Z,32.38
2024-05-09T12:05:19.284Z,32
2024-05-09T12:06:18.065Z,32.06
2024-05-09T12:07:19.377Z,32.5
2024-05-09T12:08:19.528Z,32.63
2024-05-09T12:09:18.747Z,32.81
2024-05-09T12:10:32.818Z,32.63
2024-05-09T12:11:18.968Z,33
2024-05-09T12:12:18.963Z,32.94
2024-05-09T12:13:19.597Z,33.19
2024-05-09T12:14:19.650Z,33.44
2024-05-09T12:15:18.365Z,33.5
2024-05-09T12:16:18.831Z,33.06
2024-05-09T12:17:20.038Z,33.19
2024-05-09T12:18:18.994Z,32.88
2024-05-09T12:19:19.351Z,33.38
2024-05-09T12:20:38.412Z,32.94
2024-05-09T12:21:18.593Z,33.31
2024-05-09T12:22:19.738Z,32.75
2024-05-09T12:23:17.952Z,33.25
2024-05-09T12:24:19.316Z,33.94
2024-05-09T12:25:19.895Z,34.13
2024-05-09T12:26:18.767Z,34
2024-05-09T12:27:19.234Z,34.13
2024-05-09T12:28:19.044Z,34.25
2024-05-09T12:29:19.633Z,34.06
2024-05-09T12:30:39.992Z,34.31
2024-05-09T12:31:19.684Z,34.5
2024-05-09T12:32:19.781Z,34.69
2024-05-09T12:33:18.188Z,34.75
2024-05-09T12:34:19.378Z,34.56
2024-05-09T12:35:19.903Z,35
2024-05-09T12:36:19.088Z,35
2024-05-09T12:37:18.441Z,34.63
2024-05-09T12:38:18.227Z,35
2024-05-09T12:39:19.459Z,35.5
2024-05-09T12:40:38.066Z,35.13
2024-05-09T12:41:19.547Z,34.88
2024-05-09T12:42:30.536Z,34.94
2024-05-09T12:43:18.138Z,34.88
2024-05-09T12:44:19.097Z,34.81
2024-05-09T12:45:18.759Z,34.56
2024-05-09T12:46:17.899Z,34.63
2024-05-09T12:47:19.176Z,33.94
2024-05-09T12:48:19.718Z,33.81
2024-05-09T12:49:21.115Z,34.5
2024-05-09T12:50:28.776Z,34.75
2024-05-09T12:51:19.280Z,34.69
2024-05-09T12:52:18.883Z,34.75
2024-05-09T12:53:18.955Z,34.44
2024-05-09T12:54:18.182Z,34.06
2024-05-09T12:55:18.970Z,34.31
2024-05-09T12:56:19.022Z,34.31
2024-05-09T12:57:19.101Z,34.56
2024-05-09T12:58:20.071Z,34.94
2024-05-09T12:59:18.558Z,34.06
2024-05-09T13:00:34.065Z,33.25
2024-05-09T13:01:17.894Z,33.38
2024-05-09T13:02:19.758Z,33.94
2024-05-09T13:03:19.853Z,34.31
2024-05-09T13:04:20.242Z,34.44
2024-05-09T13:05:18.726Z,34.5
2024-05-09T13:06:18.109Z,34.19